Elkton, Ohio
Current Conditions -  °F | °C
As of 12:47 PM on Thursday 30 Oct 2014 (Local Time) from KBVI Reporting Station
Overcast Overcast  
Wind Chill: 46°   Ceiling: 3700
Heat Index: 48°   Visibility: 10mi
Dew Point: 37°   Wind: 5mph
Humidity: 66%   Direction: 330°NNW
Pressure: 30.1"   Gusts: NA
Location:  40.76°N, 80.7°W
Report Text: KBVI 301647Z 33004KT 10SM SCT024 BKN037 OVC046 09/03 A3010
Loading
Personal Weather Stations






























Interactive Weather Map
Tropical Storm Tracking
New forecast layout! Learn more

10-Day Weather Forecast

Advertisements
Track Severe Weather on mobile